Time;durP1;ratioP1;P1;durP2;ratioP2;P2;SDS_P1;SDS_P2;PMS_P1;PMS_P2;Temp;Humidity;BMP_temperature;BMP_pressure;BME280_temperature;BME280_humidity;BME280_pressure;Samples;Min_cycle;Max_cycle;Signal;HPM_P1;HPM_P2
2021/08/17 00:02:04;;;;;;;7.70;1.20;;;13.80;97.40;;;;;;5005658;28;20045;-80
2021/08/17 00:04:30;;;;;;;9.25;1.65;;;13.80;97.30;;;;;;4997941;28;20044;-80
2021/08/17 00:06:57;;;;;;;7.45;1.45;;;13.80;97.40;;;;;;4992793;28;20045;-80
2021/08/17 00:09:23;;;;;;;6.13;0.90;;;13.80;97.40;;;;;;4999247;28;20400;-81
2021/08/17 00:11:50;;;;;;;4.40;0.70;;;13.70;97.80;;;;;;5032166;28;20045;-80
2021/08/17 00:14:16;;;;;;;5.10;1.15;;;13.70;97.60;;;;;;4996759;28;20393;-81
2021/08/17 00:16:43;;;;;;;6.30;1.27;;;13.60;97.70;;;;;;5012126;28;20053;-81
2021/08/17 00:19:09;;;;;;;7.15;1.45;;;13.50;97.80;;;;;;4978219;28;20523;-81
2021/08/17 00:21:37;;;;;;;8.05;0.75;;;13.50;97.80;;;;;;5020385;28;20060;-81
2021/08/17 00:24:04;;;;;;;7.68;1.15;;;13.40;97.90;;;;;;5037579;28;20029;-81
2021/08/17 00:26:30;;;;;;;9.65;0.75;;;13.40;98.10;;;;;;5001001;28;20420;-81
2021/08/17 00:28:57;;;;;;;6.75;1.15;;;13.40;98.10;;;;;;5021855;28;20477;-81
2021/08/17 00:31:23;;;;;;;7.10;0.82;;;13.30;98.10;;;;;;5010111;28;20046;-81
2021/08/17 00:33:49;;;;;;;4.72;0.80;;;13.30;98.20;;;;;;5013231;28;20404;-80
2021/08/17 00:36:16;;;;;;;11.23;0.98;;;13.30;98.20;;;;;;5012193;28;20504;-80
2021/08/17 00:38:42;;;;;;;9.85;1.30;;;13.20;98.30;;;;;;4997233;28;20049;-80
2021/08/17 00:41:10;;;;;;;6.63;1.27;;;13.20;98.40;;;;;;5016232;28;20041;-80
2021/08/17 00:43:38;;;;;;;6.53;1.33;;;13.20;98.40;;;;;;5022798;28;20036;-80
2021/08/17 00:46:06;;;;;;;11.13;1.10;;;13.20;98.40;;;;;;5002960;28;20093;-80
2021/08/17 00:48:34;;;;;;;9.48;1.15;;;13.20;98.50;;;;;;5005600;28;20053;-80
2021/08/17 00:51:01;;;;;;;9.40;1.10;;;13.10;98.60;;;;;;5035048;28;20033;-81
2021/08/17 00:53:28;;;;;;;11.35;1.55;;;13.10;98.60;;;;;;4977674;28;20076;-80
2021/08/17 00:55:55;;;;;;;6.90;1.20;;;13.10;98.70;;;;;;5012154;28;20097;-80
2021/08/17 00:58:21;;;;;;;5.95;1.00;;;13.10;98.80;;;;;;5012873;28;20048;-80
2021/08/17 01:00:51;;;;;;;7.72;0.90;;;13.00;98.70;;;;;;4993256;28;20050;-81
2021/08/17 01:03:18;;;;;;;6.13;0.95;;;13.00;98.80;;;;;;5024306;28;20053;-80
2021/08/17 01:05:45;;;;;;;6.80;0.90;;;13.00;98.80;;;;;;5016300;28;20056;-81
2021/08/17 01:08:11;;;;;;;6.82;0.88;;;13.00;98.90;;;;;;4995179;28;20732;-80
2021/08/17 01:10:39;;;;;;;5.88;0.90;;;13.00;98.90;;;;;;5023765;28;20047;-80
2021/08/17 01:13:07;;;;;;;7.47;0.88;;;13.00;98.90;;;;;;4988322;28;20053;-80
2021/08/17 01:15:34;;;;;;;10.20;1.40;;;12.90;98.90;;;;;;5017874;28;20642;-80
2021/08/17 01:18:02;;;;;;;9.00;1.10;;;12.90;98.90;;;;;;5032926;28;20056;-80
2021/08/17 01:20:31;;;;;;;11.25;1.20;;;12.90;99.00;;;;;;5042321;28;20033;-80
2021/08/17 01:22:57;;;;;;;13.45;1.17;;;12.90;99.10;;;;;;5040787;28;20045;-80
2021/08/17 01:25:24;;;;;;;9.07;1.20;;;12.90;99.10;;;;;;5020808;28;20056;-80
2021/08/17 01:27:50;;;;;;;8.32;1.30;;;12.90;99.20;;;;;;5006281;28;20068;-80
2021/08/17 01:30:17;;;;;;;6.47;0.95;;;12.90;99.20;;;;;;5013854;28;20386;-80
2021/08/17 01:32:46;;;;;;;5.68;0.90;;;12.80;99.20;;;;;;5025125;28;20049;-80
2021/08/17 01:35:13;;;;;;;5.43;1.00;;;12.80;99.20;;;;;;5022002;28;20037;-80
2021/08/17 01:37:39;;;;;;;7.82;1.30;;;12.80;99.20;;;;;;5022538;28;20056;-80
2021/08/17 01:40:10;;;;;;;5.53;0.80;;;12.80;99.30;;;;;;5001308;28;20044;-80
2021/08/17 01:42:45;;;;;;;6.47;1.08;;;12.80;99.30;;;;;;5007891;28;20045;-80
2021/08/17 01:45:13;;;;;;;8.48;1.35;;;12.70;99.40;;;;;;5019923;28;20171;-80
2021/08/17 01:47:42;;;;;;;8.82;1.17;;;12.70;99.40;;;;;;5041142;28;20049;-80
2021/08/17 01:50:10;;;;;;;8.40;0.98;;;12.70;99.50;;;;;;5026126;28;20069;-80
2021/08/17 01:52:37;;;;;;;7.13;1.10;;;12.60;99.50;;;;;;5001890;28;20049;-80
2021/08/17 01:55:04;;;;;;;7.13;0.98;;;12.60;99.50;;;;;;4997593;28;20052;-80
2021/08/17 01:57:30;;;;;;;6.55;1.33;;;12.60;99.60;;;;;;5003188;28;20491;-80
2021/08/17 01:59:57;;;;;;;5.55;0.80;;;12.50;99.60;;;;;;5008624;28;20045;-80
2021/08/17 02:02:23;;;;;;;5.80;1.52;;;12.50;99.60;;;;;;5001641;28;20050;-80
2021/08/17 02:04:50;;;;;;;4.63;1.00;;;12.50;99.70;;;;;;4993362;28;20041;-80
2021/08/17 02:07:16;;;;;;;5.05;0.75;;;12.40;99.70;;;;;;5005400;28;20056;-80
2021/08/17 02:09:43;;;;;;;3.65;0.88;;;12.40;99.70;;;;;;5032880;28;20036;-80
2021/08/17 02:12:09;;;;;;;4.82;1.23;;;12.40;99.80;;;;;;5019656;28;20571;-81
2021/08/17 02:14:36;;;;;;;4.85;0.88;;;12.40;99.80;;;;;;5008792;28;20436;-80
2021/08/17 02:17:02;;;;;;;7.15;2.05;;;12.40;99.90;;;;;;5022220;28;20052;-80
2021/08/17 02:19:29;;;;;;;7.32;1.00;;;12.40;99.90;;;;;;4982038;28;20049;-80
2021/08/17 02:21:55;;;;;;;8.38;1.15;;;12.40;99.90;;;;;;5013544;28;20060;-80
2021/08/17 02:24:22;;;;;;;3.22;1.05;;;12.30;99.90;;;;;;5027337;28;20049;-81
2021/08/17 02:26:48;;;;;;;5.00;1.25;;;12.30;99.90;;;;;;5023293;28;20044;-81
2021/08/17 02:29:15;;;;;;;9.18;1.25;;;12.30;99.90;;;;;;5033213;28;20030;-80
2021/08/17 02:31:41;;;;;;;5.20;1.27;;;12.30;99.90;;;;;;5027075;28;20528;-80
2021/08/17 02:34:08;;;;;;;5.32;1.10;;;12.30;99.90;;;;;;4975840;28;20484;-81
2021/08/17 02:36:34;;;;;;;8.23;0.93;;;12.20;99.90;;;;;;5019972;28;20037;-80
2021/08/17 02:39:02;;;;;;;7.07;1.30;;;12.20;99.90;;;;;;4999332;28;20515;-80
2021/08/17 02:41:28;;;;;;;5.68;1.10;;;12.20;99.90;;;;;;5018106;28;20029;-81
2021/08/17 02:43:56;;;;;;;4.40;1.42;;;12.20;99.90;;;;;;4999517;28;20053;-80
2021/08/17 02:46:22;;;;;;;10.23;1.15;;;12.20;99.90;;;;;;5026347;28;20614;-80
2021/08/17 02:48:48;;;;;;;6.57;1.10;;;12.20;99.90;;;;;;5013924;28;20051;-81
2021/08/17 02:51:16;;;;;;;5.78;1.00;;;12.20;99.90;;;;;;5002257;28;20049;-80
2021/08/17 02:53:43;;;;;;;4.95;1.23;;;12.10;99.90;;;;;;4991786;28;20045;-81
2021/08/17 02:56:09;;;;;;;7.55;1.55;;;12.20;99.90;;;;;;5000118;28;20527;-80
2021/08/17 02:58:36;;;;;;;7.03;1.52;;;12.20;99.90;;;;;;5003714;28;20048;-80
2021/08/17 03:01:02;;;;;;;6.10;1.15;;;12.20;99.90;;;;;;4983069;28;20393;-80
2021/08/17 03:03:29;;;;;;;4.18;0.88;;;12.20;99.90;;;;;;4988414;28;20045;-80
2021/08/17 03:05:56;;;;;;;4.80;0.88;;;12.20;99.90;;;;;;4976284;28;20065;-81
2021/08/17 03:08:22;;;;;;;5.45;1.10;;;12.20;99.90;;;;;;4999913;28;20045;-80
2021/08/17 03:10:49;;;;;;;4.82;1.02;;;12.20;99.90;;;;;;4993046;28;20155;-80
2021/08/17 03:13:15;;;;;;;4.60;0.88;;;12.20;99.90;;;;;;5001124;28;20099;-80
2021/08/17 03:15:41;;;;;;;4.50;1.10;;;12.20;99.90;;;;;;5002646;28;20073;-79
2021/08/17 03:18:09;;;;;;;8.50;1.05;;;12.30;99.90;;;;;;5006549;28;20052;-79
2021/08/17 03:20:37;;;;;;;6.07;1.30;;;12.20;99.90;;;;;;5000166;28;20511;-80
2021/08/17 03:23:04;;;;;;;6.60;1.20;;;12.20;99.90;;;;;;5000828;28;20041;-80
2021/08/17 03:25:31;;;;;;;6.50;1.52;;;12.20;99.90;;;;;;5001166;28;20041;-80
2021/08/17 03:27:57;;;;;;;5.15;1.10;;;12.20;99.90;;;;;;5009904;28;20044;-79
2021/08/17 03:30:26;;;;;;;6.40;1.60;;;12.20;99.90;;;;;;5011359;28;20064;-79
2021/08/17 03:32:53;;;;;;;5.85;1.30;;;12.20;99.90;;;;;;5026024;28;20041;-80
2021/08/17 03:35:20;;;;;;;4.53;1.08;;;12.20;99.90;;;;;;5014383;28;20449;-80
2021/08/17 03:37:47;;;;;;;7.22;1.20;;;12.20;99.90;;;;;;4999414;28;20049;-80
2021/08/17 03:40:18;;;;;;;6.95;1.40;;;12.30;99.90;;;;;;5024090;28;20665;-79
2021/08/17 03:42:46;;;;;;;7.10;0.82;;;12.30;99.90;;;;;;5030443;28;20045;-85
2021/08/17 03:45:15;;;;;;;3.72;1.05;;;12.20;99.90;;;;;;5024951;28;20048;-85
2021/08/17 03:47:42;;;;;;;4.78;0.93;;;12.20;99.90;;;;;;4999113;28;20096;-85
2021/08/17 03:50:11;;;;;;;5.10;0.98;;;12.30;99.90;;;;;;5003002;28;20045;-85
2021/08/17 03:52:38;;;;;;;4.95;1.05;;;12.30;99.90;;;;;;5011659;28;20052;-85
2021/08/17 03:55:06;;;;;;;5.60;1.02;;;12.30;99.90;;;;;;5020105;28;20455;-86
2021/08/17 03:57:32;;;;;;;4.00;1.20;;;12.30;99.90;;;;;;5015058;28;20040;-86
2021/08/17 03:59:59;;;;;;;6.32;1.40;;;12.40;99.90;;;;;;5001639;28;20515;-85
2021/08/17 04:02:25;;;;;;;6.45;1.17;;;12.40;99.90;;;;;;4993321;28;20049;-85
2021/08/17 04:04:52;;;;;;;5.15;1.23;;;12.40;99.90;;;;;;5005505;28;20045;-85
2021/08/17 04:07:18;;;;;;;4.43;1.10;;;12.50;99.90;;;;;;4991455;28;20064;-85
2021/08/17 04:09:44;;;;;;;4.38;0.95;;;12.50;99.90;;;;;;4999746;28;20884;-86
2021/08/17 04:12:11;;;;;;;6.50;1.23;;;12.50;99.90;;;;;;5018986;28;20048;-86
2021/08/17 04:14:37;;;;;;;4.53;1.67;;;12.50;99.90;;;;;;4996254;28;20049;-85
2021/08/17 04:17:04;;;;;;;4.25;0.90;;;12.50;99.90;;;;;;4995482;28;20067;-85
2021/08/17 04:19:30;;;;;;;2.97;0.80;;;12.60;99.90;;;;;;5021393;28;20040;-85
2021/08/17 04:21:57;;;;;;;3.38;0.90;;;12.60;99.90;;;;;;5022448;28;20475;-85
2021/08/17 04:24:23;;;;;;;4.65;1.35;;;12.60;99.90;;;;;;5016173;28;20038;-85
2021/08/17 04:26:50;;;;;;;7.10;1.52;;;12.70;99.90;;;;;;5005204;28;20053;-86
2021/08/17 04:29:16;;;;;;;4.97;1.10;;;12.70;99.90;;;;;;4980344;28;20049;-85
2021/08/17 04:31:42;;;;;;;6.47;1.60;;;12.80;99.90;;;;;;5012310;28;20049;-86
2021/08/17 04:34:09;;;;;;;5.55;1.10;;;12.80;99.90;;;;;;5001907;28;20057;-85
2021/08/17 04:36:35;;;;;;;5.90;1.08;;;12.90;99.90;;;;;;5010572;28;20060;-86
2021/08/17 04:39:02;;;;;;;10.70;1.25;;;12.90;99.90;;;;;;4984269;28;20053;-84
2021/08/17 04:41:28;;;;;;;5.30;1.15;;;12.90;99.90;;;;;;5019175;28;20048;-85
2021/08/17 04:43:55;;;;;;;6.13;1.00;;;13.00;99.90;;;;;;5025114;28;20052;-85
2021/08/17 04:46:21;;;;;;;6.35;1.40;;;13.00;99.90;;;;;;4999090;28;20048;-85
2021/08/17 04:48:49;;;;;;;5.07;1.40;;;13.00;99.90;;;;;;5021417;28;20056;-85
2021/08/17 04:51:16;;;;;;;4.43;1.20;;;13.10;99.90;;;;;;5003365;28;20044;-85
2021/08/17 04:53:42;;;;;;;3.85;1.42;;;13.10;99.90;;;;;;4983157;28;20049;-86
2021/08/17 04:56:09;;;;;;;6.72;1.92;;;13.20;99.90;;;;;;5039190;28;20068;-85
2021/08/17 04:58:35;;;;;;;4.43;1.17;;;13.30;99.90;;;;;;4995724;28;20041;-85
2021/08/17 05:01:02;;;;;;;6.43;1.20;;;13.30;99.90;;;;;;5015520;28;20048;-85
2021/08/17 05:03:29;;;;;;;10.00;1.92;;;13.40;99.90;;;;;;5017313;28;20056;-85
2021/08/17 05:05:55;;;;;;;7.03;2.15;;;13.50;99.90;;;;;;5040339;28;20037;-86
2021/08/17 05:08:22;;;;;;;5.55;1.77;;;13.50;99.90;;;;;;5007733;28;20057;-86
2021/08/17 05:10:49;;;;;;;5.75;1.63;;;13.50;99.90;;;;;;5021223;28;20087;-85
2021/08/17 05:13:16;;;;;;;6.80;2.03;;;13.50;99.90;;;;;;5013437;28;20079;-86
2021/08/17 05:15:42;;;;;;;9.07;2.53;;;13.50;99.90;;;;;;5025391;28;20049;-85
2021/08/17 05:18:09;;;;;;;10.68;2.63;;;13.60;99.90;;;;;;4989256;28;20049;-86
2021/08/17 05:20:35;;;;;;;6.75;2.10;;;13.60;99.90;;;;;;5016858;28;20045;-85
2021/08/17 05:23:02;;;;;;;4.43;2.10;;;13.50;99.90;;;;;;5033137;28;20021;-86
2021/08/17 05:25:28;;;;;;;8.63;2.47;;;13.60;99.90;;;;;;5015952;28;20072;-87
2021/08/17 05:27:54;;;;;;;7.43;3.03;;;13.60;99.90;;;;;;4981604;28;20046;-85
2021/08/17 05:30:21;;;;;;;10.45;2.92;;;13.60;99.90;;;;;;5008857;28;20498;-86
2021/08/17 05:32:48;;;;;;;6.55;3.13;;;13.70;99.90;;;;;;5004581;28;20041;-85
2021/08/17 05:35:15;;;;;;;8.60;4.07;;;13.70;99.90;;;;;;5017760;28;20045;-85
2021/08/17 05:37:41;;;;;;;7.40;3.35;;;13.70;99.90;;;;;;5025322;28;20400;-86
2021/08/17 05:40:09;;;;;;;6.63;3.45;;;13.80;99.90;;;;;;5005970;28;20072;-86
2021/08/17 05:42:36;;;;;;;9.13;4.68;;;13.90;99.90;;;;;;5007664;28;20049;-86
2021/08/17 05:45:03;;;;;;;9.07;3.60;;;13.90;99.90;;;;;;4979109;28;20049;-86
2021/08/17 05:47:31;;;;;;;9.30;4.40;;;14.00;99.90;;;;;;5006433;28;20041;-85
2021/08/17 05:49:58;;;;;;;10.73;4.65;;;14.10;99.90;;;;;;4996910;28;20049;-87
2021/08/17 05:52:24;;;;;;;9.23;4.65;;;14.10;99.90;;;;;;5005200;28;20052;-86
2021/08/17 05:54:51;;;;;;;10.85;5.57;;;14.20;99.90;;;;;;5040179;28;20045;-86
2021/08/17 05:57:18;;;;;;;10.43;5.50;;;14.20;99.90;;;;;;5014382;28;20057;-86
2021/08/17 05:59:45;;;;;;;14.57;7.90;;;14.40;99.90;;;;;;5004157;28;20045;-85
2021/08/17 06:02:11;;;;;;;13.73;7.93;;;14.40;99.90;;;;;;4994833;28;20488;-86
2021/08/17 06:04:37;;;;;;;16.80;9.75;;;14.50;99.90;;;;;;4996162;28;20046;-85
2021/08/17 06:07:04;;;;;;;14.65;8.93;;;14.50;99.90;;;;;;5009423;28;20044;-85
2021/08/17 06:09:31;;;;;;;19.15;9.02;;;14.60;99.90;;;;;;5003397;28;20508;-88
2021/08/17 06:11:57;;;;;;;18.73;10.05;;;14.60;99.90;;;;;;4980025;28;20045;-85
2021/08/17 06:14:25;;;;;;;22.65;10.20;;;14.70;99.90;;;;;;4995044;28;20049;-86
2021/08/17 06:16:51;;;;;;;21.65;11.07;;;14.70;99.90;;;;;;5006831;28;20069;-85
2021/08/17 06:19:18;;;;;;;19.92;10.38;;;14.80;99.90;;;;;;5003467;28;20048;-85
2021/08/17 06:21:45;;;;;;;22.92;12.15;;;14.90;99.90;;;;;;5022749;28;20064;-85
2021/08/17 06:24:11;;;;;;;19.77;10.52;;;15.00;99.90;;;;;;4988556;28;20473;-84
2021/08/17 06:26:38;;;;;;;23.17;13.43;;;15.10;99.90;;;;;;5013367;28;20049;-85
2021/08/17 06:29:04;;;;;;;23.23;12.18;;;15.20;99.90;;;;;;5009996;28;20053;-84
2021/08/17 06:31:31;;;;;;;25.30;12.48;;;15.30;99.90;;;;;;5028658;28;20036;-85
2021/08/17 06:34:00;;;;;;;21.88;12.50;;;15.50;99.90;;;;;;5013455;28;20054;-84
2021/08/17 06:36:27;;;;;;;19.85;11.40;;;15.60;99.90;;;;;;4995952;28;20071;-85
2021/08/17 06:38:53;;;;;;;21.02;11.50;;;15.80;99.90;;;;;;4992645;28;20136;-85
2021/08/17 06:41:20;;;;;;;28.40;15.07;;;15.90;99.90;;;;;;5013122;28;20045;-85
2021/08/17 06:43:46;;;;;;;26.08;15.07;;;16.00;99.90;;;;;;5022671;28;20040;-85
2021/08/17 06:46:13;;;;;;;31.73;15.73;;;16.10;99.90;;;;;;4998837;28;20045;-86
2021/08/17 06:48:39;;;;;;;29.77;15.60;;;16.20;99.90;;;;;;5009865;28;20047;-86
2021/08/17 06:51:08;;;;;;;32.67;17.67;;;16.30;99.90;;;;;;5003014;28;20132;-86
2021/08/17 06:53:34;;;;;;;29.85;16.15;;;16.30;99.90;;;;;;4993954;28;20508;-86
2021/08/17 06:56:01;;;;;;;30.52;16.83;;;16.40;99.90;;;;;;5020911;28;20045;-83
2021/08/17 06:58:27;;;;;;;33.63;18.13;;;16.50;99.90;;;;;;4987945;28;20054;-84
2021/08/17 07:00:54;;;;;;;27.83;15.55;;;16.60;99.90;;;;;;5008862;28;20048;-83
2021/08/17 07:03:20;;;;;;;23.98;13.27;;;16.70;99.90;;;;;;5012281;28;20064;-83
2021/08/17 07:05:46;;;;;;;26.02;14.95;;;16.70;99.90;;;;;;5028236;28;20033;-83
2021/08/17 07:08:13;;;;;;;28.42;14.63;;;16.80;99.90;;;;;;4980359;28;20049;-84
2021/08/17 07:10:42;;;;;;;27.15;15.23;;;16.80;99.90;;;;;;5026772;28;20198;-84
2021/08/17 07:13:08;;;;;;;28.27;16.17;;;16.90;99.90;;;;;;5007110;28;20041;-83
2021/08/17 07:15:35;;;;;;;33.22;16.98;;;16.90;99.90;;;;;;5005401;28;20056;-83
2021/08/17 07:18:01;;;;;;;33.15;17.70;;;16.90;99.90;;;;;;4991850;28;20505;-87
2021/08/17 07:20:28;;;;;;;24.92;15.48;;;16.90;99.90;;;;;;5017766;28;20791;-83
2021/08/17 07:22:54;;;;;;;31.77;17.52;;;16.90;99.90;;;;;;4993182;28;20868;-84
2021/08/17 07:25:21;;;;;;;37.33;18.38;;;16.90;99.90;;;;;;4997366;28;20041;-84
2021/08/17 07:27:48;;;;;;;32.22;18.25;;;17.00;99.90;;;;;;5018018;28;20047;-84
2021/08/17 07:30:14;;;;;;;36.95;21.35;;;17.00;99.90;;;;;;5020416;28;20052;-85
2021/08/17 07:32:43;;;;;;;30.67;16.75;;;17.10;99.90;;;;;;5024825;28;20064;-84
2021/08/17 07:35:15;;;;;;;31.15;17.33;;;17.10;99.90;;;;;;5008624;28;20781;-83
2021/08/17 07:37:43;;;;;;;37.08;20.45;;;17.20;99.90;;;;;;5023483;28;20045;-85
2021/08/17 07:40:11;;;;;;;36.03;19.55;;;17.30;99.90;;;;;;5003399;28;20496;-84
2021/08/17 07:42:38;;;;;;;35.33;19.48;;;17.30;99.90;;;;;;5002489;28;20045;-86
2021/08/17 07:45:09;;;;;;;38.30;19.80;;;17.40;99.90;;;;;;5010780;28;20044;-84
2021/08/17 07:47:36;;;;;;;29.77;17.67;;;17.50;99.90;;;;;;5016852;28;20045;-84
2021/08/17 07:50:04;;;;;;;30.80;17.45;;;17.60;99.90;;;;;;5020463;28;20514;-84
2021/08/17 07:52:34;;;;;;;31.63;17.45;;;17.70;99.90;;;;;;5040800;28;20032;-85
2021/08/17 07:55:10;;;;;;;25.52;15.73;;;17.90;99.90;;;;;;5016189;28;20416;-88
2021/08/17 07:57:38;;;;;;;33.78;17.30;;;18.00;99.90;;;;;;5000461;28;20056;-84
2021/08/17 08:00:07;;;;;;;27.13;15.52;;;18.00;99.90;;;;;;5013301;28;20037;-85
2021/08/17 08:02:34;;;;;;;27.17;14.63;;;18.00;99.90;;;;;;5005246;28;20052;-84
2021/08/17 08:05:00;;;;;;;30.10;16.67;;;18.10;99.90;;;;;;5026835;28;20048;-85
2021/08/17 08:07:27;;;;;;;26.88;15.20;;;18.30;99.90;;;;;;5002584;28;20048;-84
2021/08/17 08:09:53;;;;;;;26.45;15.63;;;18.50;99.90;;;;;;5009482;28;20052;-82
2021/08/17 08:12:20;;;;;;;28.38;15.50;;;18.60;99.90;;;;;;5035726;28;20368;-81
2021/08/17 08:14:46;;;;;;;32.63;14.70;;;18.70;99.90;;;;;;5019532;28;20056;-85
2021/08/17 08:17:13;;;;;;;27.88;13.90;;;18.60;99.90;;;;;;5002986;28;20053;-81
2021/08/17 08:19:40;;;;;;;28.83;16.13;;;18.40;99.90;;;;;;5020032;28;20041;-81
2021/08/17 08:22:07;;;;;;;28.02;14.63;;;18.30;99.90;;;;;;5030351;28;20396;-81
2021/08/17 08:24:35;;;;;;;33.17;17.98;;;18.10;99.90;;;;;;5030286;28;20049;-80
2021/08/17 08:27:01;;;;;;;27.70;14.85;;;18.00;99.90;;;;;;5044649;28;20033;-81
2021/08/17 08:29:28;;;;;;;31.40;15.63;;;17.90;99.90;;;;;;5033298;28;20040;-81
2021/08/17 08:31:54;;;;;;;23.77;13.30;;;17.90;99.90;;;;;;4999565;28;20091;-82
2021/08/17 08:34:21;;;;;;;28.25;12.57;;;18.00;99.90;;;;;;5018366;28;20053;-82
2021/08/17 08:36:49;;;;;;;24.83;12.82;;;18.10;99.90;;;;;;4976998;28;20049;-81
2021/08/17 08:39:17;;;;;;;25.00;12.40;;;18.20;99.90;;;;;;5022650;28;20049;-82
2021/08/17 08:41:46;;;;;;;21.42;12.10;;;18.20;99.90;;;;;;5003774;28;20048;-81
2021/08/17 08:44:13;;;;;;;23.98;12.77;;;18.30;99.90;;;;;;4997780;28;20499;-82
2021/08/17 08:46:41;;;;;;;23.13;11.90;;;18.30;99.90;;;;;;5018371;28;20060;-81
2021/08/17 08:49:07;;;;;;;20.27;11.82;;;18.30;99.90;;;;;;5031466;28;20034;-81
2021/08/17 08:51:36;;;;;;;18.83;12.00;;;18.30;99.90;;;;;;5015585;28;20044;-81
2021/08/17 08:54:03;;;;;;;28.67;12.60;;;18.30;99.90;;;;;;5011245;28;20041;-82
2021/08/17 08:56:31;;;;;;;26.92;13.10;;;18.30;99.90;;;;;;5002822;28;20052;-82
2021/08/17 08:58:57;;;;;;;22.77;11.15;;;18.20;99.90;;;;;;5020678;28;20041;-81
2021/08/17 09:01:25;;;;;;;20.60;10.90;;;18.10;99.90;;;;;;4993733;28;20044;-82
2021/08/17 09:03:56;;;;;;;25.75;10.77;;;18.00;99.90;;;;;;5022876;28;20868;-82
2021/08/17 09:06:27;;;;;;;18.30;10.93;;;17.80;99.90;;;;;;5007026;28;20040;-82
2021/08/17 09:09:17;;;;;;;18.77;9.80;;;17.80;99.90;;;;;;5000592;28;20392;-83
2021/08/17 09:11:49;;;;;;;19.58;11.25;;;17.70;99.90;;;;;;5018693;28;20396;-82
2021/08/17 09:14:24;;;;;;;19.05;10.05;;;17.60;99.90;;;;;;5014231;28;20136;-82
2021/08/17 09:16:54;;;;;;;21.88;9.80;;;17.50;99.90;;;;;;5002781;28;20057;-81
2021/08/17 09:19:42;;;;;;;19.00;10.02;;;17.60;99.90;;;;;;5016212;28;20063;-81
2021/08/17 09:22:21;;;;;;;22.10;9.90;;;17.60;99.90;;;;;;5038079;28;20036;-81
2021/08/17 09:24:52;;;;;;;19.02;9.55;;;17.50;99.90;;;;;;5010013;28;20045;-83
2021/08/17 09:27:34;;;;;;;17.30;9.98;;;17.50;99.90;;;;;;5015120;28;20038;-81
2021/08/17 09:30:10;;;;;;;19.40;9.67;;;17.60;99.90;;;;;;5025191;28;20044;-82
2021/08/17 09:32:57;;;;;;;20.00;9.88;;;17.60;99.90;;;;;;5040525;28;20045;-81
2021/08/17 09:35:25;;;;;;;17.90;9.07;;;17.70;99.90;;;;;;5003587;28;20037;-82
2021/08/17 09:38:08;;;;;;;16.70;10.10;;;17.80;99.90;;;;;;5006283;28;20045;-83
2021/08/17 09:40:35;;;;;;;21.17;10.30;;;17.80;99.90;;;;;;5011034;28;20049;-83
2021/08/17 09:43:19;;;;;;;16.63;9.05;;;17.90;99.90;;;;;;5013470;28;20044;-83
2021/08/17 09:45:47;;;;;;;14.85;8.93;;;18.00;99.90;;;;;;5018102;28;20072;-82
2021/08/17 09:48:16;;;;;;;16.48;9.43;;;18.10;99.90;;;;;;5041344;28;20791;-83
2021/08/17 09:50:43;;;;;;;14.32;8.70;;;18.20;99.90;;;;;;4994181;28;20049;-83
2021/08/17 09:53:20;;;;;;;16.63;9.52;;;18.30;99.90;;;;;;5039971;28;20041;-81
2021/08/17 09:55:52;;;;;;;19.25;9.90;;;18.50;99.90;;;;;;5022201;28;20680;-82
2021/08/17 09:58:22;;;;;;;16.40;9.25;;;18.60;99.50;;;;;;5038790;28;20031;-81
2021/08/17 10:00:50;;;;;;;15.13;8.30;;;18.70;99.30;;;;;;5027861;28;20041;-84
2021/08/17 10:03:18;;;;;;;14.45;8.27;;;18.70;99.20;;;;;;5013641;28;20044;-81
2021/08/17 10:05:45;;;;;;;17.60;8.00;;;18.80;99.10;;;;;;5040319;28;20384;-81
2021/08/17 10:08:13;;;;;;;17.25;8.27;;;18.80;98.90;;;;;;5019990;28;20049;-86
2021/08/17 10:10:47;;;;;;;12.68;7.80;;;18.90;98.80;;;;;;5007249;28;20045;-82
2021/08/17 10:13:16;;;;;;;13.00;7.57;;;18.90;98.40;;;;;;5034665;28;20045;-82
2021/08/17 10:15:44;;;;;;;13.32;7.38;;;18.90;98.10;;;;;;4999414;28;20064;-82
2021/08/17 10:18:13;;;;;;;15.75;7.47;;;18.80;98.10;;;;;;4994234;28;20044;-81
2021/08/17 10:20:43;;;;;;;15.65;7.75;;;18.70;98.00;;;;;;5007399;28;20056;-81
2021/08/17 10:23:16;;;;;;;11.32;6.90;;;18.70;98.10;;;;;;5040034;28;20039;-82
2021/08/17 10:25:54;;;;;;;10.55;6.05;;;18.80;98.20;;;;;;5040357;28;20060;-81
2021/08/17 10:28:33;;;;;;;11.35;6.78;;;18.90;98.10;;;;;;5016305;28;20068;-82
2021/08/17 10:31:12;;;;;;;10.60;6.30;;;19.00;97.90;;;;;;5019790;28;20516;-82
2021/08/17 10:33:56;;;;;;;10.93;5.97;;;19.10;97.70;;;;;;4999886;28;20056;-80
2021/08/17 10:36:34;;;;;;;13.48;6.07;;;19.00;97.60;;;;;;5029925;28;20948;-81
2021/08/17 10:39:18;;;;;;;10.98;6.28;;;18.80;97.70;;;;;;5014510;28;20052;-82
2021/08/17 10:41:46;;;;;;;12.07;6.68;;;18.80;97.80;;;;;;5035345;28;20798;-83
2021/08/17 10:44:14;;;;;;;9.90;5.93;;;18.80;97.70;;;;;;5007147;28;20041;-81
2021/08/17 10:46:51;;;;;;;10.48;5.45;;;18.70;97.50;;;;;;5006543;28;20045;-81
2021/08/17 10:49:45;;;;;;;9.35;4.75;;;18.70;97.50;;;;;;5019865;28;20045;-81
2021/08/17 10:52:35;;;;;;;13.63;5.47;;;18.80;97.20;;;;;;5009059;28;20052;-81
2021/08/17 10:55:25;;;;;;;9.52;5.32;;;18.90;97.20;;;;;;5022261;28;20041;-81
2021/08/17 10:58:11;;;;;;;9.57;4.38;;;19.00;97.00;;;;;;5003381;28;20061;-81
2021/08/17 11:00:56;;;;;;;11.63;4.32;;;19.00;97.00;;;;;;5030528;28;20449;-80
2021/08/17 11:03:50;;;;;;;9.75;4.13;;;19.10;96.70;;;;;;5034387;28;20041;-80
2021/08/17 11:06:50;;;;;;;6.32;3.70;;;19.20;96.20;;;;;;5011903;28;20068;-80
2021/08/17 11:09:21;;;;;;;8.20;3.67;;;19.30;96.00;;;;;;5034698;28;20028;-80
2021/08/17 11:11:59;;;;;;;8.15;4.15;;;19.50;95.80;;;;;;5023471;28;20045;-81
2021/08/17 11:14:28;;;;;;;7.93;4.10;;;19.40;95.40;;;;;;5024392;28;20037;-80
2021/08/17 11:16:59;;;;;;;9.35;4.38;;;19.40;95.40;;;;;;4998691;28;20049;-80
2021/08/17 11:19:35;;;;;;;7.43;3.03;;;19.40;95.40;;;;;;5020584;28;20040;-80
2021/08/17 11:22:06;;;;;;;9.52;4.05;;;19.30;95.30;;;;;;5006753;28;20373;-80
2021/08/17 11:24:37;;;;;;;7.40;3.43;;;19.30;95.30;;;;;;5014202;28;20037;-80
2021/08/17 11:27:06;;;;;;;7.32;3.05;;;19.20;95.70;;;;;;5039861;28;20029;-80
2021/08/17 11:29:40;;;;;;;8.60;3.42;;;19.10;95.70;;;;;;5038191;28;20037;-80
2021/08/17 11:32:26;;;;;;;8.45;3.47;;;19.00;96.00;;;;;;5039215;28;20080;-80
2021/08/17 11:34:53;;;;;;;6.35;2.88;;;18.90;96.30;;;;;;5039824;28;20041;-75
2021/08/17 11:37:20;;;;;;;8.35;3.45;;;18.80;96.60;;;;;;4993220;28;20134;-75
2021/08/17 11:39:48;;;;;;;9.35;2.95;;;18.50;97.20;;;;;;5039672;28;20035;-78
2021/08/17 11:42:35;;;;;;;7.10;3.17;;;18.30;98.00;;;;;;5039499;28;20032;-79
2021/08/17 11:45:13;;;;;;;5.28;2.78;;;18.00;98.30;;;;;;5037805;28;20041;-78
2021/08/17 11:47:41;;;;;;;7.13;3.83;;;17.80;98.70;;;;;;5016647;28;20388;-77
2021/08/17 11:50:10;;;;;;;6.30;2.88;;;17.60;99.20;;;;;;5037500;28;20132;-75
2021/08/17 11:52:38;;;;;;;6.57;3.50;;;17.40;99.80;;;;;;5032530;28;20043;-74
2021/08/17 11:55:21;;;;;;;8.85;3.47;;;17.20;99.90;;;;;;5017951;28;20392;-74
2021/08/17 11:57:53;;;;;;;9.57;3.60;;;17.00;99.90;;;;;;5012269;28;20056;-73
2021/08/17 12:00:23;;;;;;;7.22;3.50;;;16.80;99.90;;;;;;5032852;28;20032;-74
2021/08/17 12:02:57;;;;;;;7.40;3.40;;;16.60;99.90;;;;;;5036361;28;20602;-74
2021/08/17 12:05:29;;;;;;;6.90;2.42;;;16.50;99.90;;;;;;5033976;28;20030;-74
2021/08/17 12:07:56;;;;;;;5.03;2.60;;;16.30;99.90;;;;;;5032959;28;20633;-74
2021/08/17 12:10:27;;;;;;;6.15;2.83;;;16.20;99.90;;;;;;5028583;28;20033;-75
2021/08/17 12:13:11;;;;;;;7.20;3.60;;;16.10;99.90;;;;;;5034545;28;20042;-74
2021/08/17 12:15:42;;;;;;;11.02;5.00;;;16.00;99.90;;;;;;5002303;28;20055;-74
2021/08/17 12:18:17;;;;;;;5.40;2.90;;;15.90;99.90;;;;;;5035733;28;20511;-74
2021/08/17 12:20:54;;;;;;;5.72;3.10;;;15.90;99.90;;;;;;5036772;28;20033;-74
2021/08/17 12:23:21;;;;;;;8.18;3.45;;;15.80;99.90;;;;;;5018778;28;20041;-75
2021/08/17 12:25:52;;;;;;;15.05;4.00;;;15.70;99.90;;;;;;5036065;28;20040;-74
2021/08/17 12:28:33;;;;;;;8.93;4.07;;;15.70;99.90;;;;;;5031695;28;20053;-75
2021/08/17 12:31:14;;;;;;;5.88;3.22;;;15.60;99.90;;;;;;5020663;28;20272;-74
2021/08/17 12:34:08;;;;;;;6.30;2.55;;;15.40;99.90;;;;;;5021687;28;20045;-74
2021/08/17 12:36:38;;;;;;;6.10;3.35;;;15.30;99.90;;;;;;5036765;28;20377;-74
2021/08/17 12:39:11;;;;;;;6.65;3.53;;;15.30;99.90;;;;;;5038000;28;20040;-74
2021/08/17 12:41:45;;;;;;;4.00;2.92;;;15.30;99.90;;;;;;5039333;28;20519;-74
2021/08/17 12:44:18;;;;;;;6.65;3.83;;;15.30;99.90;;;;;;5033278;28;20033;-78
2021/08/17 12:47:14;;;;;;;7.28;3.78;;;15.30;99.90;;;;;;5036021;28;20036;-78
2021/08/17 12:49:45;;;;;;;6.43;3.55;;;15.30;99.90;;;;;;5035559;28;20025;-79
2021/08/17 12:52:35;;;;;;;7.40;4.43;;;15.30;99.90;;;;;;5033355;28;20084;-79